Mare Island, California
Current Conditions -  °F | °C
As of 8:54 PM on Sunday 19 Oct 2014 (Local Time) from KAPC Reporting Station
Clear Clear  
Wind Chill: 61°   Ceiling: Unl
Heat Index: 61°   Visibility: 10mi
Dew Point: 58°   Wind: 8mph
Humidity: 90%   Direction: 240°WSW
Pressure: 29.88"   Gusts: NA
Location:  38.1191°N, 122.313°W
Report Text: KAPC 200354Z AUTO 24007KT 10SM CLR 16/14 A2988 RMK AO2 SLP109 T01610144
Loading
Personal Weather Stations






























Interactive Weather Map
Tropical Storm Tracking
New forecast layout! Learn more

10-Day Weather Forecast

Advertisements
Track Severe Weather on mobile